createdAt,value
2018-03-20T00:00:38.646Z,9.92
2018-03-20T00:06:29.467Z,11.91
2018-03-20T00:12:20.402Z,11.66
2018-03-20T00:18:11.253Z,9.2
2018-03-20T00:24:02.212Z,7.97
2018-03-20T00:29:53.072Z,10.1
2018-03-20T00:35:43.936Z,17.64
2018-03-20T00:41:34.843Z,12.76
2018-03-20T00:47:25.726Z,12.95
2018-03-20T00:53:16.591Z,15.56
2018-03-20T00:59:07.434Z,14.69
2018-03-20T01:04:58.318Z,10.78
2018-03-20T01:10:49.302Z,10.43
2018-03-20T01:16:40.182Z,10.6
2018-03-20T01:22:31.012Z,10.67
2018-03-20T01:28:21.912Z,12.59
2018-03-20T01:34:12.818Z,13.7
2018-03-20T01:40:03.720Z,13.71
2018-03-20T01:45:54.572Z,13.8
2018-03-20T01:51:45.445Z,14.5
2018-03-20T01:57:36.358Z,13.39
2018-03-20T02:03:27.232Z,10.61
2018-03-20T02:09:18.104Z,11.47
2018-03-20T02:15:09.032Z,12.93
2018-03-20T02:20:59.875Z,7.82
2018-03-20T02:26:50.767Z,7.37
2018-03-20T02:32:41.699Z,6.44
2018-03-20T02:38:32.576Z,5.95
2018-03-20T02:44:23.459Z,7.32
2018-03-20T02:50:14.371Z,9.68
2018-03-20T02:56:05.229Z,9.44
2018-03-20T03:01:56.089Z,8.55
2018-03-20T03:07:47.006Z,8.41
2018-03-20T03:13:37.873Z,7.31
2018-03-20T03:19:28.743Z,8.27
2018-03-20T03:25:19.722Z,7.91
2018-03-20T03:31:10.616Z,8.58
2018-03-20T03:37:01.440Z,9.3
2018-03-20T03:42:52.363Z,9.8
2018-03-20T03:48:43.242Z,9.68
2018-03-20T03:54:34.121Z,9.91
2018-03-20T04:00:24.992Z,10.7
2018-03-20T04:06:15.881Z,11.24
2018-03-20T04:12:06.728Z,11.04
2018-03-20T04:17:57.632Z,11.16
2018-03-20T04:23:48.536Z,11.16
2018-03-20T04:29:39.480Z,10.08
2018-03-20T04:35:30.266Z,8.89
2018-03-20T04:41:21.151Z,7.87
2018-03-20T04:47:12.035Z,7.38
2018-03-20T04:53:03.000Z,6.91
2018-03-20T04:58:53.872Z,9.09
2018-03-20T05:04:44.701Z,7.95
2018-03-20T05:10:35.592Z,7.79
2018-03-20T05:16:26.458Z,7.76
2018-03-20T05:22:17.414Z,11.6
2018-03-20T05:28:08.246Z,8.49
2018-03-20T05:33:59.178Z,6.94
2018-03-20T05:39:50.057Z,4.69
2018-03-20T05:45:40.918Z,6.96
2018-03-20T05:51:31.838Z,8.17
2018-03-20T05:57:22.632Z,7.7
2018-03-20T06:03:13.552Z,7.17
2018-03-20T06:09:04.433Z,8.58
2018-03-20T06:14:55.344Z,9.35
2018-03-20T06:20:46.211Z,9.25
2018-03-20T06:26:37.051Z,9.44
2018-03-20T06:32:27.924Z,14.18
2018-03-20T06:38:18.839Z,21.94
2018-03-20T06:44:09.749Z,21.27
2018-03-20T06:50:00.701Z,15.54
2018-03-20T06:55:51.577Z,14.74
2018-03-20T07:01:42.431Z,25.59
2018-03-20T07:07:33.257Z,3.12
2018-03-20T07:13:24.172Z,1.78
2018-03-20T07:19:15.101Z,2.13
2018-03-20T07:25:06.007Z,1.53
2018-03-20T07:30:56.868Z,1.96
2018-03-20T07:36:47.724Z,2.73
2018-03-20T07:42:38.661Z,2.02
2018-03-20T07:48:29.585Z,2.85
2018-03-20T07:54:20.405Z,1.86
2018-03-20T08:00:11.267Z,2.58
2018-03-20T08:06:02.221Z,2.4
2018-03-20T08:11:53.051Z,2.05
2018-03-20T08:17:43.941Z,2.05
2018-03-20T08:23:34.839Z,2
2018-03-20T08:29:25.730Z,2.74
2018-03-20T08:35:16.617Z,2.17
2018-03-20T08:41:07.488Z,2.24
2018-03-20T08:46:58.383Z,2.8
2018-03-20T08:52:49.289Z,3.3
2018-03-20T08:58:40.155Z,2.49
2018-03-20T09:04:31.068Z,2.46
2018-03-20T09:10:21.938Z,3.35
2018-03-20T09:16:12.803Z,3.02
2018-03-20T09:22:03.710Z,2.58
2018-03-20T09:27:54.584Z,2.47
2018-03-20T09:33:45.464Z,2.76
2018-03-20T09:39:36.443Z,2.4
2018-03-20T09:45:27.239Z,2.49
2018-03-20T09:51:18.164Z,1.76
2018-03-20T09:57:09.031Z,1.8
2018-03-20T10:02:59.930Z,2.06
2018-03-20T10:08:50.819Z,1.8
2018-03-20T10:14:41.735Z,2.04
2018-03-20T10:20:32.620Z,1.61
2018-03-20T10:26:23.524Z,1.81
2018-03-20T10:32:14.398Z,2.3
2018-03-20T10:38:05.256Z,2
2018-03-20T10:43:56.143Z,2.07
2018-03-20T10:49:47.014Z,2.2
2018-03-20T10:55:37.924Z,1.91
2018-03-20T11:01:28.833Z,2.82
2018-03-20T11:07:19.758Z,2.78
2018-03-20T11:13:10.598Z,3.03
2018-03-20T11:19:01.446Z,5.44
2018-03-20T11:24:52.430Z,4.59
2018-03-20T11:30:43.263Z,4
2018-03-20T11:36:34.194Z,5.22
2018-03-20T11:42:25.093Z,4.4
2018-03-20T11:48:15.954Z,4.92
2018-03-20T11:54:06.902Z,4.76
2018-03-20T11:59:57.723Z,6.34
2018-03-20T12:05:48.608Z,5.87
2018-03-20T12:11:39.599Z,5.17
2018-03-20T12:17:30.478Z,5.37
2018-03-20T12:23:21.325Z,6.31
2018-03-20T12:29:12.258Z,5.04
2018-03-20T12:35:03.097Z,6.02
2018-03-20T12:40:53.982Z,5.69
2018-03-20T12:46:44.938Z,6
2018-03-20T12:52:35.860Z,5.33
2018-03-20T12:58:26.761Z,4.72
2018-03-20T13:04:17.673Z,5.78
2018-03-20T13:10:08.461Z,6.85
2018-03-20T13:15:59.397Z,5.72
2018-03-20T13:21:50.301Z,5.91
2018-03-20T13:27:41.140Z,5.69
2018-03-20T13:33:32.056Z,5.4
2018-03-20T13:39:22.928Z,5.63
2018-03-20T13:45:13.923Z,4.23
2018-03-20T13:51:04.761Z,4.74
2018-03-20T13:56:55.719Z,4.22
2018-03-20T14:02:46.550Z,4.22
2018-03-20T14:08:37.412Z,6.01
2018-03-20T14:14:28.349Z,2.96
2018-03-20T14:20:19.248Z,4.21
2018-03-20T14:26:10.224Z,3.99
2018-03-20T14:32:01.022Z,3.48
2018-03-20T14:37:51.950Z,3.88
2018-03-20T14:43:42.791Z,3.95
2018-03-20T14:49:33.754Z,3.22
2018-03-20T14:55:24.578Z,4.06
2018-03-20T15:01:15.528Z,4.65
2018-03-20T15:07:06.487Z,3.25
2018-03-20T15:12:57.292Z,4.04
2018-03-20T15:18:48.220Z,3.6
2018-03-20T15:24:39.077Z,3.91
2018-03-20T15:30:30.043Z,3.59
2018-03-20T15:36:20.863Z,4.8
2018-03-20T15:42:11.883Z,4.42
2018-03-20T15:48:02.682Z,3.37
2018-03-20T15:53:53.630Z,3.73
2018-03-20T15:59:44.469Z,4.71
2018-03-20T16:05:35.442Z,3.41
2018-03-20T16:11:26.347Z,4.29
2018-03-20T16:17:17.220Z,4.45
2018-03-20T16:23:08.125Z,4
2018-03-20T16:28:58.994Z,4.47
2018-03-20T16:34:49.879Z,4.22
2018-03-20T16:40:40.789Z,4.36
2018-03-20T16:46:31.780Z,5.66
2018-03-20T16:52:22.601Z,7.04
2018-03-20T16:58:13.460Z,5.47
2018-03-20T17:04:04.383Z,5.15
2018-03-20T17:09:55.249Z,4.51
2018-03-20T17:15:46.161Z,4.71
2018-03-20T17:21:37.048Z,4.42
2018-03-20T17:27:27.952Z,5.46
2018-03-20T17:33:18.815Z,4.82
2018-03-20T17:39:09.737Z,5.66
2018-03-20T17:45:00.692Z,5.51
2018-03-20T17:50:51.529Z,4.8
2018-03-20T17:56:42.406Z,4.77
2018-03-20T18:02:33.388Z,5.39
2018-03-20T18:08:24.208Z,6.01
2018-03-20T18:14:15.173Z,5.64
2018-03-20T18:20:06.028Z,5.29
2018-03-20T18:25:56.968Z,5.73
2018-03-20T18:31:47.856Z,6.04
2018-03-20T18:37:38.682Z,5.79
2018-03-20T18:43:29.577Z,6.09
2018-03-20T18:49:20.449Z,7.94
2018-03-20T18:55:11.441Z,5.52
2018-03-20T19:01:02.283Z,4.95
2018-03-20T19:06:53.132Z,4.28
2018-03-20T19:12:44.049Z,4.33
2018-03-20T19:18:34.898Z,3.74
2018-03-20T19:24:25.798Z,3.49
2018-03-20T19:30:16.705Z,2.87
2018-03-20T19:36:07.578Z,3.49
2018-03-20T19:41:58.532Z,14.68
2018-03-20T19:47:49.411Z,3.33
2018-03-20T19:53:40.290Z,2.73
2018-03-20T19:59:31.153Z,2.48
2018-03-20T20:05:22.051Z,3
2018-03-20T20:11:12.973Z,2.71
2018-03-20T20:17:03.890Z,1.89
2018-03-20T20:22:54.829Z,2.14
2018-03-20T20:28:45.648Z,2.47
2018-03-20T20:34:36.576Z,3.36
2018-03-20T20:40:27.454Z,1.83
2018-03-20T20:46:18.344Z,2.55
2018-03-20T20:52:09.218Z,1.97
2018-03-20T20:58:00.147Z,2.37
2018-03-20T21:03:51.019Z,1.31
2018-03-20T21:09:41.897Z,1.98
2018-03-20T21:15:32.791Z,2.56
2018-03-20T21:21:23.691Z,2.5
2018-03-20T21:27:14.578Z,1
2018-03-20T21:33:05.528Z,1.17
2018-03-20T21:38:56.415Z,1.41
2018-03-20T21:44:47.304Z,1.38
2018-03-20T21:50:38.190Z,1.31
2018-03-20T21:56:29.055Z,1.39
2018-03-20T22:02:19.943Z,1.64
2018-03-20T22:08:10.838Z,1.71
2018-03-20T22:14:01.768Z,2.35
2018-03-20T22:19:52.689Z,1.98
2018-03-20T22:25:43.548Z,2.18
2018-03-20T22:31:34.516Z,2.08
2018-03-20T22:37:25.293Z,2.03
2018-03-20T22:43:16.200Z,1.69
2018-03-20T22:49:07.062Z,1.32
2018-03-20T22:54:57.995Z,1.52
2018-03-20T23:00:48.926Z,1.52
2018-03-20T23:06:39.750Z,1.78
2018-03-20T23:12:30.680Z,2.16
2018-03-20T23:18:21.580Z,1.73
2018-03-20T23:24:12.505Z,1.42
2018-03-20T23:30:03.406Z,1.31
2018-03-20T23:35:54.249Z,1.53
2018-03-20T23:41:45.152Z,1.5
2018-03-20T23:47:36.057Z,1.72
2018-03-20T23:53:26.905Z,1.8
2018-03-20T23:59:17.805Z,1.69
